createdAt,value
2023-02-11T00:00:42.034Z,20.10
2023-02-11T00:03:10.207Z,19.90
2023-02-11T00:05:39.292Z,19.80
2023-02-11T00:08:07.584Z,20.20
2023-02-11T00:10:36.747Z,21.00
2023-02-11T00:13:04.982Z,20.50
2023-02-11T00:15:35.139Z,21.10
2023-02-11T00:18:03.933Z,22.10
2023-02-11T00:20:32.071Z,21.10
2023-02-11T00:23:00.612Z,22.80
2023-02-11T00:25:29.507Z,20.30
2023-02-11T00:27:58.077Z,21.60
2023-02-11T00:30:26.190Z,20.40
2023-02-11T00:32:54.870Z,20.30
2023-02-11T00:35:22.912Z,21.60
2023-02-11T00:37:54.119Z,20.20
2023-02-11T00:40:22.958Z,22.00
2023-02-11T00:42:51.049Z,20.40
2023-02-11T00:45:21.307Z,21.20
2023-02-11T00:47:49.837Z,22.30
2023-02-11T00:50:17.935Z,22.90
2023-02-11T00:52:46.366Z,21.00
2023-02-11T00:55:15.258Z,22.00
2023-02-11T00:57:43.794Z,20.90
2023-02-11T01:00:12.832Z,21.00
2023-02-11T01:02:45.117Z,18.70
2023-02-11T01:05:15.498Z,22.20
2023-02-11T01:07:44.387Z,23.80
2023-02-11T01:10:15.171Z,23.80
2023-02-11T01:12:43.759Z,24.60
2023-02-11T01:15:15.026Z,23.30
2023-02-11T01:17:43.610Z,22.80
2023-02-11T01:20:16.153Z,23.50
2023-02-11T01:22:44.403Z,22.80
2023-02-11T01:25:14.055Z,23.50
2023-02-11T01:27:42.657Z,23.30
2023-02-11T01:30:12.925Z,23.40
2023-02-11T01:32:41.626Z,24.80
2023-02-11T01:35:10.030Z,26.20
2023-02-11T01:37:38.605Z,21.80
2023-02-11T01:40:08.288Z,24.20
2023-02-11T01:42:36.811Z,24.10
2023-02-11T01:45:57.992Z,23.00
2023-02-11T01:48:37.941Z,22.80
2023-02-11T01:51:18.577Z,22.30
2023-02-11T01:54:05.601Z,21.60
2023-02-11T01:56:54.075Z,21.70
2023-02-11T01:59:33.358Z,22.50
2023-02-11T02:02:05.329Z,23.00
2023-02-11T02:04:35.911Z,21.00
2023-02-11T02:07:08.615Z,21.40
2023-02-11T02:09:40.463Z,21.50
2023-02-11T02:12:08.497Z,20.50
2023-02-11T02:14:40.991Z,22.30
2023-02-11T02:17:26.612Z,21.70
2023-02-11T02:20:23.123Z,22.20
2023-02-11T02:22:59.077Z,21.00
2023-02-11T02:25:53.082Z,21.50
2023-02-11T02:28:51.845Z,20.80
2023-02-11T02:31:42.100Z,21.90
2023-02-11T02:34:15.921Z,22.80
2023-02-11T02:39:20.671Z,21.50
2023-02-11T02:41:48.831Z,21.30
2023-02-11T02:44:16.902Z,19.90
2023-02-11T02:46:44.986Z,20.10
2023-02-11T02:49:13.984Z,21.60
2023-02-11T02:51:53.948Z,21.80
2023-02-11T02:54:56.115Z,21.70
2023-02-11T02:57:24.059Z,21.20
2023-02-11T02:59:51.983Z,20.90
2023-02-11T03:02:22.794Z,22.30
2023-02-11T03:05:08.944Z,22.20
2023-02-11T03:07:56.562Z,23.00
2023-02-11T03:10:29.199Z,24.10
2023-02-11T03:12:57.606Z,21.10
2023-02-11T03:15:27.161Z,20.10
2023-02-11T03:17:56.568Z,21.70
2023-02-11T03:20:24.723Z,20.30
2023-02-11T03:22:58.595Z,21.30
2023-02-11T03:25:29.558Z,23.20
2023-02-11T03:28:08.961Z,22.00
2023-02-11T03:30:40.299Z,22.30
2023-02-11T03:33:24.380Z,20.90
2023-02-11T03:36:00.792Z,20.80
2023-02-11T03:38:38.497Z,21.90
2023-02-11T03:41:07.117Z,22.20
2023-02-11T03:43:42.318Z,23.30
2023-02-11T03:46:10.325Z,21.60
2023-02-11T03:48:40.664Z,21.40
2023-02-11T03:51:09.586Z,22.20
2023-02-11T03:53:39.673Z,24.60
2023-02-11T03:56:09.286Z,23.10
2023-02-11T03:58:37.635Z,26.90
2023-02-11T04:01:08.991Z,25.90
2023-02-11T04:03:37.404Z,30.70
2023-02-11T04:06:06.203Z,28.70
2023-02-11T04:08:34.596Z,27.00
2023-02-11T04:11:04.695Z,26.00
2023-02-11T04:13:33.663Z,24.60
2023-02-11T04:16:02.091Z,23.80
2023-02-11T04:18:32.951Z,25.20
2023-02-11T04:21:00.934Z,23.40
2023-02-11T04:23:29.204Z,23.70
2023-02-11T04:25:57.317Z,23.30
2023-02-11T04:28:26.958Z,21.90
2023-02-11T04:30:56.180Z,23.00
2023-02-11T04:33:24.319Z,23.20
2023-02-11T04:35:53.023Z,23.20
2023-02-11T04:38:24.072Z,22.90
2023-02-11T04:40:52.137Z,22.30
2023-02-11T04:43:20.142Z,24.70
2023-02-11T04:45:48.666Z,24.30
2023-02-11T04:48:18.255Z,22.80
2023-02-11T04:50:47.087Z,23.30
2023-02-11T04:53:15.384Z,23.10
2023-02-11T04:55:45.086Z,24.80
2023-02-11T04:58:13.304Z,23.60
2023-02-11T05:00:41.430Z,23.00
2023-02-11T05:03:09.658Z,21.30
2023-02-11T05:05:41.490Z,21.90
2023-02-11T05:08:10.181Z,22.10
2023-02-11T05:10:39.098Z,24.40
2023-02-11T05:13:07.433Z,21.70
2023-02-11T05:15:35.715Z,21.70
2023-02-11T05:18:04.581Z,22.70
2023-02-11T05:20:32.691Z,22.10
2023-02-11T05:23:01.140Z,21.30
2023-02-11T05:25:30.050Z,21.40
2023-02-11T05:27:58.578Z,20.90
2023-02-11T05:30:27.000Z,19.70
2023-02-11T05:32:55.765Z,21.10
2023-02-11T05:35:24.206Z,21.60
2023-02-11T05:37:56.867Z,21.30
2023-02-11T05:40:25.980Z,21.30
2023-02-11T05:42:57.269Z,21.10
2023-02-11T05:45:26.960Z,20.60
2023-02-11T05:47:55.785Z,20.10
2023-02-11T05:50:23.723Z,21.60
2023-02-11T05:52:53.946Z,20.00
2023-02-11T05:55:22.340Z,20.90
2023-02-11T05:57:50.985Z,19.50
2023-02-11T06:00:19.590Z,19.90
2023-02-11T06:02:48.517Z,20.80
2023-02-11T06:05:18.294Z,21.10
2023-02-11T06:07:47.656Z,20.10
2023-02-11T06:10:16.505Z,19.60
2023-02-11T06:12:45.040Z,21.00
2023-02-11T06:15:15.383Z,20.60
2023-02-11T06:17:44.476Z,20.10
2023-02-11T06:20:16.547Z,20.50
2023-02-11T06:22:45.291Z,20.00
2023-02-11T06:25:13.645Z,20.10
2023-02-11T06:27:46.094Z,19.70
2023-02-11T06:30:14.720Z,18.70
2023-02-11T06:32:46.658Z,20.50
2023-02-11T06:35:17.030Z,21.50
2023-02-11T06:37:48.201Z,21.10
2023-02-11T06:40:17.112Z,18.70
2023-02-11T06:42:46.162Z,18.90
2023-02-11T06:45:15.011Z,21.60
2023-02-11T06:47:43.336Z,22.50
2023-02-11T06:50:14.396Z,22.00
2023-02-11T06:52:43.419Z,20.90
2023-02-11T06:55:11.694Z,22.80
2023-02-11T06:57:42.320Z,21.80
2023-02-11T07:00:11.568Z,20.30
2023-02-11T07:02:40.303Z,20.10
2023-02-11T07:05:09.486Z,24.30
2023-02-11T07:07:37.573Z,20.30
2023-02-11T07:10:08.655Z,19.80
2023-02-11T07:12:40.581Z,20.30
2023-02-11T07:15:09.342Z,21.00
2023-02-11T07:17:37.534Z,21.10
2023-02-11T07:20:06.469Z,21.80
2023-02-11T07:22:35.078Z,21.20
2023-02-11T07:25:04.646Z,20.70
2023-02-11T07:27:33.380Z,21.00
2023-02-11T07:30:01.597Z,19.30
2023-02-11T07:32:30.190Z,22.60
2023-02-11T07:35:04.070Z,22.30
2023-02-11T07:37:34.737Z,24.50
2023-02-11T07:40:03.493Z,22.50
2023-02-11T07:42:31.765Z,23.90
2023-02-11T07:45:00.652Z,23.90
2023-02-11T07:47:28.743Z,26.00
2023-02-11T07:49:58.433Z,23.30
2023-02-11T07:52:30.198Z,22.80
2023-02-11T07:54:58.356Z,23.40
2023-02-11T07:57:27.491Z,23.30
2023-02-11T07:59:56.327Z,24.80
2023-02-11T08:02:25.721Z,24.60
2023-02-11T08:04:54.367Z,27.00
2023-02-11T08:07:22.554Z,28.50
2023-02-11T08:09:55.690Z,25.90
2023-02-11T08:12:23.874Z,23.40
2023-02-11T08:14:51.954Z,24.90
2023-02-11T08:17:20.093Z,25.50
2023-02-11T08:19:48.775Z,25.30
2023-02-11T08:22:16.676Z,24.50
2023-02-11T08:24:44.720Z,24.20
2023-02-11T08:27:14.256Z,24.20
2023-02-11T08:29:42.588Z,25.60
2023-02-11T08:32:15.603Z,27.50
2023-02-11T08:34:43.598Z,27.20
2023-02-11T08:37:11.565Z,25.40
2023-02-11T08:39:40.301Z,24.50
2023-02-11T08:42:08.287Z,23.40
2023-02-11T08:44:37.181Z,24.40
2023-02-11T08:47:05.299Z,25.50
2023-02-11T08:49:34.277Z,25.90
2023-02-11T08:52:04.270Z,27.70
2023-02-11T08:54:34.606Z,31.80
2023-02-11T08:57:03.015Z,25.90
2023-02-11T08:59:31.249Z,28.20
2023-02-11T09:01:59.272Z,28.80
2023-02-11T09:04:27.220Z,28.20
2023-02-11T09:06:55.569Z,28.60
2023-02-11T09:09:23.541Z,26.70
2023-02-11T09:11:51.444Z,27.70
2023-02-11T09:14:21.396Z,29.00
2023-02-11T09:16:51.672Z,29.60
2023-02-11T09:19:25.331Z,26.00
2023-02-11T09:21:53.338Z,28.20
2023-02-11T09:24:21.313Z,30.40
2023-02-11T09:26:49.776Z,30.30
2023-02-11T09:29:17.971Z,28.10
2023-02-11T09:31:47.196Z,27.30
2023-02-11T09:34:16.053Z,30.70
2023-02-11T09:36:44.003Z,28.40
2023-02-11T09:39:15.109Z,27.90
2023-02-11T09:41:56.189Z,27.50
2023-02-11T09:44:26.268Z,29.40
2023-02-11T09:46:57.438Z,24.50
2023-02-11T09:49:49.495Z,29.70
2023-02-11T09:52:38.045Z,27.80
2023-02-11T09:55:30.836Z,28.70
2023-02-11T09:57:59.071Z,29.10
2023-02-11T10:00:33.594Z,28.10
2023-02-11T10:03:26.967Z,27.90
2023-02-11T10:06:07.843Z,27.20
2023-02-11T10:08:51.465Z,28.60
2023-02-11T10:11:31.953Z,28.40
2023-02-11T10:14:33.298Z,29.20
2023-02-11T10:17:26.330Z,28.70
2023-02-11T10:20:06.695Z,27.60
2023-02-11T10:22:36.569Z,29.70
2023-02-11T10:25:41.123Z,30.00
2023-02-11T10:28:22.239Z,28.30
2023-02-11T10:31:11.730Z,29.30
2023-02-11T10:33:42.818Z,29.20
2023-02-11T10:36:14.690Z,28.40
2023-02-11T10:38:42.880Z,30.20
2023-02-11T10:41:15.304Z,30.40
2023-02-11T10:43:43.784Z,29.80
2023-02-11T10:46:21.491Z,28.80
2023-02-11T10:48:52.998Z,28.40
2023-02-11T10:51:23.659Z,29.50
2023-02-11T10:54:08.614Z,25.70
2023-02-11T10:56:38.506Z,27.00
2023-02-11T10:59:21.960Z,26.30
2023-02-11T11:01:51.901Z,24.40
2023-02-11T11:04:45.411Z,28.50
2023-02-11T11:07:22.275Z,29.40
2023-02-11T11:10:07.004Z,29.00
2023-02-11T11:12:56.401Z,28.90
2023-02-11T11:15:29.306Z,28.30
2023-02-11T11:18:22.813Z,30.80
2023-02-11T11:21:02.208Z,30.00
2023-02-11T11:23:31.486Z,30.50
2023-02-11T11:26:08.168Z,29.00
2023-02-11T11:28:51.967Z,28.90
2023-02-11T11:31:23.121Z,29.40
2023-02-11T11:33:52.536Z,29.90
2023-02-11T11:36:22.902Z,29.40
2023-02-11T11:38:54.546Z,31.80
2023-02-11T11:41:33.679Z,30.90
2023-02-11T11:44:21.876Z,30.00
2023-02-11T11:47:08.242Z,29.60
2023-02-11T11:49:44.500Z,26.70
2023-02-11T11:52:34.565Z,27.30
2023-02-11T11:55:27.613Z,29.80
2023-02-11T11:57:55.939Z,27.50
2023-02-11T12:00:28.709Z,27.90
2023-02-11T12:03:19.747Z,27.10
2023-02-11T12:06:07.423Z,28.90
2023-02-11T12:11:31.426Z,27.30
2023-02-11T12:14:31.114Z,27.70
2023-02-11T12:17:33.538Z,29.80
2023-02-11T12:20:06.037Z,27.00
2023-02-11T12:22:59.026Z,27.60
2023-02-11T12:25:28.431Z,29.90
2023-02-11T12:27:56.810Z,25.70
2023-02-11T12:30:43.519Z,28.20
2023-02-11T12:33:37.437Z,27.60
2023-02-11T12:36:13.054Z,26.20
2023-02-11T12:39:01.738Z,28.40
2023-02-11T12:41:55.241Z,27.50
2023-02-11T12:44:43.695Z,28.70
2023-02-11T12:47:30.837Z,22.60
2023-02-11T12:50:11.022Z,25.10
2023-02-11T12:52:53.751Z,23.90
2023-02-11T12:55:23.813Z,25.20
2023-02-11T12:57:52.574Z,25.70
2023-02-11T13:00:22.500Z,25.20
2023-02-11T13:02:57.045Z,25.00
2023-02-11T13:05:37.639Z,23.50
2023-02-11T13:08:26.374Z,24.40
2023-02-11T13:11:00.881Z,23.30
2023-02-11T13:13:35.981Z,22.00
2023-02-11T13:16:26.484Z,24.90
2023-02-11T13:19:50.905Z,21.60
2023-02-11T13:22:38.990Z,23.10
2023-02-11T13:25:41.495Z,21.80
2023-02-11T13:28:37.170Z,23.10
2023-02-11T13:31:07.784Z,21.20
2023-02-11T13:33:44.621Z,19.70
2023-02-11T13:36:15.227Z,19.90
2023-02-11T13:38:52.110Z,20.10
2023-02-11T13:41:33.617Z,19.90
2023-02-11T13:44:11.393Z,17.10
2023-02-11T13:47:02.758Z,15.70
2023-02-11T13:49:41.312Z,16.80
2023-02-11T13:52:22.347Z,16.80
2023-02-11T13:54:52.311Z,16.60
2023-02-11T13:57:21.355Z,13.90
2023-02-11T13:59:53.654Z,13.80
2023-02-11T14:02:52.917Z,13.00
2023-02-11T14:05:47.803Z,13.30
2023-02-11T14:08:43.205Z,12.90
2023-02-11T14:11:42.253Z,10.70
2023-02-11T14:14:16.174Z,11.50
2023-02-11T14:17:07.926Z,10.90
2023-02-11T14:19:49.741Z,11.30
2023-02-11T14:22:30.047Z,11.30
2023-02-11T14:25:00.230Z,11.90
2023-02-11T14:27:43.842Z,10.70
2023-02-11T14:30:27.135Z,12.60
2023-02-11T14:33:03.877Z,11.40
2023-02-11T14:35:44.232Z,9.40
2023-02-11T14:38:47.982Z,12.50
2023-02-11T14:41:23.197Z,11.00
2023-02-11T14:44:02.157Z,11.60
2023-02-11T14:46:32.907Z,11.90
2023-02-11T14:49:02.403Z,11.80
2023-02-11T14:51:36.205Z,12.60
2023-02-11T14:54:17.772Z,13.80
2023-02-11T14:56:46.908Z,12.70
2023-02-11T14:59:22.316Z,12.50
2023-02-11T15:01:51.564Z,13.10
2023-02-11T15:04:31.404Z,14.90
2023-02-11T15:07:04.176Z,13.50
2023-02-11T15:09:46.764Z,14.10
2023-02-11T15:12:28.141Z,15.30
2023-02-11T15:14:58.777Z,14.10
2023-02-11T15:17:30.649Z,14.00
2023-02-11T15:20:00.818Z,15.50
2023-02-11T15:22:33.594Z,14.20
2023-02-11T15:25:16.797Z,14.40
2023-02-11T15:27:50.541Z,13.80
2023-02-11T15:30:22.179Z,13.10
2023-02-11T15:33:04.107Z,14.90
2023-02-11T15:35:42.588Z,14.90
2023-02-11T15:38:11.654Z,15.50
2023-02-11T15:40:39.818Z,15.80
2023-02-11T15:43:09.936Z,16.60
2023-02-11T15:45:42.823Z,14.40
2023-02-11T15:48:18.045Z,16.70
2023-02-11T15:50:52.354Z,16.40
2023-02-11T15:53:43.226Z,16.70
2023-02-11T15:56:18.216Z,15.30
2023-02-11T15:58:50.843Z,16.80
2023-02-11T16:01:18.846Z,18.40
2023-02-11T16:03:50.047Z,16.70
2023-02-11T16:06:25.025Z,17.40
2023-02-11T16:09:22.102Z,19.60
2023-02-11T16:11:50.149Z,17.00
2023-02-11T16:14:37.254Z,19.40
2023-02-11T16:17:12.853Z,17.00
2023-02-11T16:19:46.372Z,19.90
2023-02-11T16:22:24.864Z,20.70
2023-02-11T16:24:54.221Z,20.30
2023-02-11T16:27:34.963Z,20.00
2023-02-11T16:30:03.936Z,16.50
2023-02-11T16:32:32.792Z,15.80
2023-02-11T16:35:02.144Z,20.90
2023-02-11T16:37:31.920Z,18.70
2023-02-11T16:40:00.175Z,19.00
2023-02-11T16:42:28.825Z,16.00
2023-02-11T16:44:57.315Z,19.80
2023-02-11T16:47:27.179Z,18.20
2023-02-11T16:49:55.928Z,16.20
2023-02-11T16:52:24.111Z,18.90
2023-02-11T16:54:52.533Z,19.20
2023-02-11T16:57:23.246Z,18.00
2023-02-11T16:59:51.802Z,16.70
2023-02-11T17:02:27.340Z,19.70
2023-02-11T17:04:57.902Z,18.50
2023-02-11T17:07:26.149Z,19.50
2023-02-11T17:09:55.622Z,19.60
2023-02-11T17:12:26.616Z,16.90
2023-02-11T17:14:55.055Z,17.20
2023-02-11T17:17:24.706Z,18.50
2023-02-11T17:19:53.724Z,16.20
2023-02-11T17:22:21.984Z,15.80
2023-02-11T17:24:49.980Z,18.20
2023-02-11T17:27:18.470Z,14.80
2023-02-11T17:29:46.490Z,17.10
2023-02-11T17:32:15.522Z,14.20
2023-02-11T17:34:44.458Z,17.40
2023-02-11T17:37:12.639Z,16.90
2023-02-11T17:39:40.921Z,18.40
2023-02-11T17:42:09.370Z,17.90
2023-02-11T17:44:38.918Z,18.80
2023-02-11T17:47:07.809Z,17.30
2023-02-11T17:49:36.614Z,17.40
2023-02-11T17:52:06.490Z,16.80
2023-02-11T17:54:35.029Z,16.50
2023-02-11T17:57:03.460Z,16.70
2023-02-11T17:59:35.844Z,16.50
2023-02-11T18:02:04.610Z,16.80
2023-02-11T18:04:32.885Z,17.10
2023-02-11T18:07:01.328Z,16.90
2023-02-11T18:09:37.498Z,15.90
2023-02-11T18:12:06.773Z,17.80
2023-02-11T18:14:34.782Z,17.20
2023-02-11T18:17:03.184Z,16.30
2023-02-11T18:19:33.185Z,16.40
2023-02-11T18:22:04.485Z,17.40
2023-02-11T18:24:33.463Z,16.30
2023-02-11T18:27:01.629Z,18.10
2023-02-11T18:29:30.022Z,18.30
2023-02-11T18:31:58.150Z,16.80
2023-02-11T18:34:26.835Z,17.50
2023-02-11T18:36:55.296Z,17.90
2023-02-11T18:39:26.501Z,17.30
2023-02-11T18:41:57.068Z,19.20
2023-02-11T18:44:26.946Z,17.50
2023-02-11T18:46:55.204Z,16.40
2023-02-11T18:49:23.806Z,18.50
2023-02-11T18:51:52.739Z,17.50
2023-02-11T18:54:21.109Z,18.80
2023-02-11T18:56:49.544Z,18.40
2023-02-11T18:59:17.977Z,19.50
2023-02-11T19:01:47.211Z,17.40
2023-02-11T19:04:20.676Z,18.40
2023-02-11T19:06:50.487Z,18.80
2023-02-11T19:09:22.662Z,18.70
2023-02-11T19:11:58.397Z,18.90
2023-02-11T19:14:28.432Z,20.60
2023-02-11T19:16:57.739Z,18.20
2023-02-11T19:19:28.840Z,19.20
2023-02-11T19:21:59.437Z,19.20
2023-02-11T19:24:28.355Z,18.50
2023-02-11T19:26:58.790Z,19.20
2023-02-11T19:29:32.426Z,19.00
2023-02-11T19:32:01.196Z,17.20
2023-02-11T19:34:30.282Z,20.30
2023-02-11T19:37:04.810Z,20.40
2023-02-11T19:39:34.228Z,19.60
2023-02-11T19:42:02.284Z,18.90
2023-02-11T19:44:30.793Z,20.60
2023-02-11T19:47:00.227Z,18.20
2023-02-11T19:49:32.644Z,21.10
2023-02-11T19:52:01.791Z,21.20
2023-02-11T19:54:31.367Z,22.70
2023-02-11T19:57:00.105Z,21.30
2023-02-11T19:59:29.489Z,19.40
2023-02-11T20:01:58.149Z,20.20
2023-02-11T20:04:27.986Z,21.20
2023-02-11T20:06:56.698Z,19.80
2023-02-11T20:09:26.942Z,20.90
2023-02-11T20:11:56.873Z,20.50
2023-02-11T20:14:27.906Z,20.40
2023-02-11T20:16:58.186Z,21.00
2023-02-11T20:19:27.196Z,20.90
2023-02-11T20:21:56.143Z,21.20
2023-02-11T20:24:25.053Z,20.60
2023-02-11T20:26:56.169Z,21.50
2023-02-11T20:29:25.180Z,20.60
2023-02-11T20:31:54.152Z,20.20
2023-02-11T20:34:22.495Z,19.80
2023-02-11T20:36:54.966Z,22.00
2023-02-11T20:39:27.934Z,22.70
2023-02-11T20:41:57.564Z,20.20
2023-02-11T20:44:25.680Z,21.80
2023-02-11T20:46:54.557Z,23.30
2023-02-11T20:49:24.180Z,21.00
2023-02-11T20:51:54.369Z,20.30
2023-02-11T20:54:26.637Z,20.10
2023-02-11T20:56:56.280Z,21.40
2023-02-11T20:59:24.637Z,22.00
2023-02-11T21:01:55.574Z,21.20
2023-02-11T21:04:30.926Z,23.00
2023-02-11T21:07:03.722Z,22.00
2023-02-11T21:09:35.231Z,20.30
2023-02-11T21:12:03.650Z,22.40
2023-02-11T21:14:34.197Z,21.00
2023-02-11T21:17:02.513Z,21.40
2023-02-11T21:19:31.042Z,21.60
2023-02-11T21:22:01.464Z,21.00
2023-02-11T21:24:31.196Z,21.20
2023-02-11T21:27:02.938Z,23.10
2023-02-11T21:29:31.272Z,19.80
2023-02-11T21:31:59.341Z,21.40
2023-02-11T21:34:27.894Z,20.40
2023-02-11T21:36:56.065Z,21.10
2023-02-11T21:39:24.441Z,21.10
2023-02-11T21:41:52.614Z,20.80
2023-02-11T21:44:21.216Z,22.90
2023-02-11T21:46:49.914Z,21.60
2023-02-11T21:49:19.865Z,20.30
2023-02-11T21:51:49.177Z,21.10
2023-02-11T21:56:51.906Z,21.00
2023-02-11T21:59:21.077Z,20.80
2023-02-11T22:01:50.422Z,18.90
2023-02-11T22:04:19.216Z,20.80
2023-02-11T22:06:47.859Z,20.80
2023-02-11T22:09:19.210Z,19.80
2023-02-11T22:11:49.664Z,20.30
2023-02-11T22:14:17.877Z,20.60
2023-02-11T22:16:48.283Z,22.00
2023-02-11T22:19:17.386Z,20.70
2023-02-11T22:21:45.427Z,19.60
2023-02-11T22:24:13.533Z,20.80
2023-02-11T22:26:41.530Z,20.90
2023-02-11T22:29:10.944Z,20.60
2023-02-11T22:31:40.256Z,20.50
2023-02-11T22:34:08.718Z,21.10
2023-02-11T22:36:39.439Z,21.00
2023-02-11T22:39:13.339Z,19.10
2023-02-11T22:41:42.585Z,20.60
2023-02-11T22:44:10.683Z,21.50
2023-02-11T22:46:38.885Z,19.90
2023-02-11T22:49:07.523Z,19.30
2023-02-11T22:51:35.547Z,19.80
2023-02-11T22:54:04.928Z,19.10
2023-02-11T22:56:33.743Z,19.10
2023-02-11T22:59:04.076Z,18.60
2023-02-11T23:01:32.327Z,17.70
2023-02-11T23:04:01.314Z,19.80
2023-02-11T23:06:29.539Z,19.80
2023-02-11T23:08:58.156Z,17.40
2023-02-11T23:11:28.924Z,18.90
2023-02-11T23:13:59.356Z,19.10
2023-02-11T23:16:31.322Z,17.60
2023-02-11T23:19:01.375Z,17.30
2023-02-11T23:21:31.052Z,18.00
2023-02-11T23:24:01.177Z,18.30
2023-02-11T23:26:30.185Z,17.00
2023-02-11T23:28:59.031Z,17.30
2023-02-11T23:31:30.055Z,16.80
2023-02-11T23:33:58.558Z,17.00
2023-02-11T23:36:26.701Z,16.80
2023-02-11T23:38:58.441Z,16.70
2023-02-11T23:41:26.496Z,15.30
2023-02-11T23:43:56.196Z,15.40
2023-02-11T23:46:26.129Z,15.20
2023-02-11T23:48:54.646Z,14.90
2023-02-11T23:51:22.683Z,14.90
2023-02-11T23:53:51.095Z,15.30
2023-02-11T23:56:21.507Z,14.60
2023-02-11T23:58:50.556Z,14.60
